createdAt,value
2018-01-03T00:20:30.497Z,1.1
2018-01-03T00:24:10.727Z,0.6
2018-01-03T00:38:37.461Z,0.6
2018-01-03T00:49:00.410Z,1.1
2018-01-03T01:20:44.561Z,2.9
2018-01-03T01:43:37.504Z,3.9
2018-01-03T01:44:38.276Z,2.8
2018-01-03T01:45:39.080Z,2.0
2018-01-03T01:46:39.797Z,1.8
2018-01-03T01:47:40.514Z,2.1
2018-01-03T01:48:41.245Z,2.0
2018-01-03T01:49:41.959Z,2.4
2018-01-03T01:50:42.667Z,1.4
2018-01-03T01:51:43.397Z,1.2
2018-01-03T01:52:44.114Z,4.0
2018-01-03T01:53:44.885Z,2.1
2018-01-03T01:54:45.610Z,1.5
2018-01-03T01:55:46.414Z,1.2
2018-01-03T01:56:47.132Z,7.0
2018-01-03T01:57:47.854Z,2.7
2018-01-03T01:58:48.630Z,0.8
2018-01-03T01:59:49.352Z,4.3
2018-01-03T02:00:50.068Z,2.9
2018-01-03T02:01:50.794Z,1.9
2018-01-03T02:02:51.599Z,6.9
2018-01-03T02:03:52.373Z,1.2
2018-01-03T02:04:53.103Z,1.2
2018-01-03T02:05:53.903Z,2.2
2018-01-03T02:06:54.635Z,3.2
2018-01-03T02:07:55.430Z,1.6
2018-01-03T02:08:56.158Z,1.2
2018-01-03T02:09:56.981Z,1.8
2018-01-03T02:10:57.704Z,1.0
2018-01-03T02:11:58.498Z,1.3
2018-01-03T02:12:59.272Z,2.2
2018-01-03T02:14:00.027Z,2.3
2018-01-03T02:15:00.767Z,1.3
2018-01-03T02:16:01.536Z,1.1
2018-01-03T02:17:02.246Z,0.9
2018-01-03T02:18:03.503Z,1.3
2018-01-03T02:19:04.310Z,0.9
2018-01-03T02:20:05.134Z,1.3
2018-01-03T02:21:05.864Z,6.1
2018-01-03T02:22:06.674Z,3.5
2018-01-03T02:23:07.411Z,1.8
2018-01-03T02:24:08.144Z,10.2
2018-01-03T02:25:08.932Z,2.8
2018-01-03T02:26:09.731Z,1.7
2018-01-03T02:27:16.724Z,2.9
2018-01-03T02:28:17.459Z,12.5
2018-01-03T02:29:18.177Z,2.0
2018-01-03T02:30:18.961Z,3.1
2018-01-03T02:31:19.762Z,1.0
2018-01-03T02:32:20.491Z,2.1
2018-01-03T02:33:21.208Z,0.9
2018-01-03T02:34:21.946Z,0.7
2018-01-03T02:35:22.725Z,0.8
2018-01-03T02:36:23.463Z,38.0
2018-01-03T02:37:24.181Z,11.6
2018-01-03T02:38:24.899Z,4.0
2018-01-03T02:39:25.633Z,2.2
2018-01-03T02:40:26.362Z,3.3
2018-01-03T02:41:27.117Z,1.7
2018-01-03T02:42:28.934Z,1.5
2018-01-03T02:43:29.569Z,0.9
2018-01-03T02:44:30.350Z,8.6
2018-01-03T02:45:31.075Z,1.5
2018-01-03T02:46:31.810Z,1.1
2018-01-03T02:47:32.527Z,1.7
2018-01-03T02:48:33.272Z,1.4
2018-01-03T02:49:34.068Z,1.3
2018-01-03T02:50:34.851Z,1.5
2018-01-03T02:51:35.587Z,1.2
2018-01-03T02:52:36.308Z,0.7
2018-01-03T02:53:37.036Z,0.9
2018-01-03T02:54:37.826Z,2.3
2018-01-03T02:55:38.561Z,1.2
2018-01-03T02:56:39.289Z,0.9
2018-01-03T02:57:40.004Z,2.3
2018-01-03T02:58:40.794Z,2.6
2018-01-03T02:59:41.529Z,1.9
2018-01-03T03:00:42.332Z,0.5
2018-01-03T03:01:43.146Z,0.7
2018-01-03T03:02:43.872Z,1.8
2018-01-03T03:03:44.610Z,0.7
2018-01-03T03:04:45.329Z,0.9
2018-01-03T03:05:46.049Z,1.3
2018-01-03T03:06:46.822Z,2.3
2018-01-03T03:07:47.569Z,0.8
2018-01-03T03:08:48.364Z,2.6
2018-01-03T03:09:49.135Z,1.8
2018-01-03T03:10:49.919Z,2.2
2018-01-03T03:11:50.701Z,3.0
2018-01-03T03:12:51.481Z,1.0
2018-01-03T03:13:52.232Z,0.6
2018-01-03T03:14:53.011Z,1.1
2018-01-03T03:15:53.750Z,2.5
2018-01-03T03:16:54.557Z,2.8
2018-01-03T03:17:55.345Z,2.2
2018-01-03T03:18:56.063Z,2.0
2018-01-03T03:19:56.791Z,0.6
2018-01-03T03:20:57.579Z,6.9
2018-01-03T03:21:58.351Z,2.2
2018-01-03T03:22:59.078Z,1.4
2018-01-03T03:23:59.846Z,0.8
2018-01-03T03:25:00.576Z,1.6
2018-01-03T03:26:01.306Z,4.0
2018-01-03T03:27:02.109Z,3.1
2018-01-03T03:28:02.833Z,2.3
2018-01-03T03:29:03.630Z,1.7
2018-01-03T03:30:04.361Z,1.9
2018-01-03T03:31:05.083Z,2.1
2018-01-03T03:32:05.901Z,2.3
2018-01-03T03:33:06.710Z,5.9
2018-01-03T03:34:07.520Z,2.3
2018-01-03T03:35:08.251Z,1.3
2018-01-03T03:36:08.969Z,4.1
2018-01-03T03:37:09.744Z,2.6
2018-01-03T03:38:10.481Z,0.9
2018-01-03T03:39:11.267Z,0.9
2018-01-03T03:40:11.990Z,4.4
2018-01-03T03:41:12.716Z,1.8
2018-01-03T03:42:13.450Z,2.9
2018-01-03T03:43:14.248Z,1.0
2018-01-03T03:44:14.978Z,1.5
2018-01-03T03:45:15.760Z,1.4
2018-01-03T03:46:16.483Z,1.2
2018-01-03T03:47:17.263Z,1.2
2018-01-03T03:48:17.980Z,1.4
2018-01-03T03:49:18.701Z,1.5
2018-01-03T03:50:19.495Z,1.6
2018-01-03T03:51:20.227Z,4.1
2018-01-03T03:52:20.948Z,1.4
2018-01-03T03:53:21.808Z,2.1
2018-01-03T03:54:22.524Z,1.9
2018-01-03T03:55:23.249Z,1.2
2018-01-03T03:56:23.981Z,4.6
2018-01-03T03:57:24.701Z,2.6
2018-01-03T03:58:25.500Z,2.8
2018-01-03T03:59:26.223Z,1.6
2018-01-03T04:00:26.950Z,1.2
2018-01-03T04:01:27.662Z,1.6
2018-01-03T04:02:28.381Z,3.1
2018-01-03T04:03:29.149Z,1.3
2018-01-03T04:04:29.871Z,1.9
2018-01-03T04:05:30.669Z,1.1
2018-01-03T04:06:31.399Z,1.3
2018-01-03T04:07:32.130Z,2.3
2018-01-03T04:08:32.987Z,1.2
2018-01-03T04:09:33.794Z,1.3
2018-01-03T04:10:34.582Z,1.1
2018-01-03T04:11:35.322Z,1.5
2018-01-03T04:12:36.100Z,1.2
2018-01-03T04:13:36.870Z,2.0
2018-01-03T04:14:37.590Z,1.3
2018-01-03T04:15:38.309Z,0.9
2018-01-03T04:16:39.040Z,1.1
2018-01-03T04:17:39.774Z,1.4
2018-01-03T04:18:40.579Z,1.0
2018-01-03T04:19:41.299Z,3.5
2018-01-03T04:20:42.030Z,1.0
2018-01-03T04:21:42.739Z,1.1
2018-01-03T04:22:43.459Z,0.9
2018-01-03T04:23:44.187Z,0.8
2018-01-03T04:24:44.980Z,1.7
2018-01-03T04:25:45.752Z,1.7
2018-01-03T04:26:46.481Z,0.9
2018-01-03T04:27:47.219Z,0.9
2018-01-03T04:28:47.966Z,1.3
2018-01-03T04:29:48.692Z,1.0
2018-01-03T04:30:49.442Z,1.2
2018-01-03T04:31:50.210Z,1.2
2018-01-03T04:32:50.936Z,1.0
2018-01-03T04:33:51.680Z,1.0
2018-01-03T04:34:52.460Z,1.5
2018-01-03T04:35:53.181Z,1.3
2018-01-03T04:36:54.024Z,0.9
2018-01-03T04:37:54.757Z,1.4
2018-01-03T04:38:55.538Z,1.5
2018-01-03T04:39:56.311Z,1.1
2018-01-03T04:40:57.035Z,1.4
2018-01-03T04:41:57.808Z,0.8
2018-01-03T04:42:58.540Z,1.1
2018-01-03T04:43:59.341Z,1.3
2018-01-03T04:45:00.141Z,2.4
2018-01-03T04:46:00.859Z,1.0
2018-01-03T04:47:01.639Z,1.5
2018-01-03T04:48:02.363Z,1.2
2018-01-03T04:49:03.081Z,2.1
2018-01-03T04:50:03.810Z,1.5
2018-01-03T04:51:04.530Z,1.8
2018-01-03T04:52:05.299Z,1.3
2018-01-03T04:53:06.035Z,1.1
2018-01-03T04:54:06.819Z,1.2
2018-01-03T04:55:07.550Z,0.9
2018-01-03T04:56:08.279Z,1.3
2018-01-03T04:57:09.065Z,0.9
2018-01-03T04:58:09.861Z,2.0
2018-01-03T04:59:10.579Z,0.7
2018-01-03T05:00:11.300Z,1.8
2018-01-03T05:01:12.019Z,1.6
2018-01-03T05:02:12.739Z,1.9
2018-01-03T05:03:13.531Z,2.0
2018-01-03T05:04:14.268Z,0.6
2018-01-03T05:05:15.026Z,0.8
2018-01-03T05:06:15.752Z,1.6
2018-01-03T05:07:16.531Z,0.8
2018-01-03T05:08:17.312Z,0.5
2018-01-03T05:09:18.119Z,1.1
2018-01-03T05:10:18.839Z,2.9
2018-01-03T05:11:19.568Z,0.6
2018-01-03T05:12:20.289Z,0.6
2018-01-03T05:13:21.019Z,0.7
2018-01-03T05:14:21.745Z,1.2
2018-01-03T05:15:22.484Z,1.3
2018-01-03T05:16:23.219Z,1.4
2018-01-03T05:17:23.957Z,0.5
2018-01-03T05:18:24.685Z,0.5
2018-01-03T05:19:25.396Z,0.6
2018-01-03T05:20:26.122Z,0.6
2018-01-03T05:21:26.919Z,0.5
2018-01-03T05:22:27.662Z,0.6
2018-01-03T05:23:28.441Z,0.8
2018-01-03T05:24:29.164Z,2.5
2018-01-03T05:25:29.954Z,0.4
2018-01-03T05:26:30.725Z,1.0
2018-01-03T05:27:31.504Z,3.1
2018-01-03T05:28:32.299Z,1.7
2018-01-03T05:29:33.020Z,1.0
2018-01-03T05:30:33.742Z,0.6
2018-01-03T05:31:34.533Z,0.5
2018-01-03T05:32:35.299Z,1.7
2018-01-03T05:33:36.019Z,0.4
2018-01-03T05:34:36.740Z,0.5
2018-01-03T05:35:37.545Z,0.8
2018-01-03T05:36:38.281Z,0.7
2018-01-03T05:37:39.052Z,0.7
2018-01-03T05:38:39.778Z,0.5
2018-01-03T05:39:40.503Z,0.5
2018-01-03T05:40:41.278Z,0.5
2018-01-03T05:41:42.039Z,0.5
2018-01-03T05:42:42.751Z,0.6
2018-01-03T05:43:43.473Z,0.8
2018-01-03T05:44:44.202Z,0.6
2018-01-03T05:45:44.983Z,1.3
2018-01-03T05:46:45.700Z,0.5
2018-01-03T05:47:46.500Z,1.7
2018-01-03T05:48:47.220Z,0.7
2018-01-03T05:49:48.021Z,3.0
2018-01-03T05:50:48.748Z,0.6
2018-01-03T05:51:49.479Z,0.7
2018-01-03T05:52:50.210Z,2.2
2018-01-03T05:53:50.938Z,0.9
2018-01-03T05:54:51.663Z,0.8
2018-01-03T05:55:52.389Z,0.8
2018-01-03T05:56:53.119Z,1.9
2018-01-03T05:57:53.923Z,0.6
2018-01-03T05:58:54.655Z,0.9
2018-01-03T05:59:55.440Z,1.7
2018-01-03T06:00:56.161Z,1.2
2018-01-03T06:01:56.881Z,1.7
2018-01-03T06:02:57.694Z,1.5
2018-01-03T06:03:58.478Z,1.7
2018-01-03T06:04:59.282Z,1.8
2018-01-03T06:06:00.012Z,1.0
2018-01-03T06:07:00.779Z,2.9
2018-01-03T06:08:01.490Z,1.1
2018-01-03T06:09:02.212Z,1.1
2018-01-03T06:10:02.995Z,2.3
2018-01-03T06:11:03.775Z,1.5
2018-01-03T06:12:04.489Z,0.9
2018-01-03T06:13:05.291Z,1.4
2018-01-03T06:14:06.149Z,1.8
2018-01-03T06:15:06.970Z,2.4
2018-01-03T06:16:07.769Z,1.0
2018-01-03T06:17:08.498Z,1.4
2018-01-03T06:18:09.227Z,0.9
2018-01-03T06:19:10.002Z,0.8
2018-01-03T06:20:10.805Z,1.8
2018-01-03T06:21:11.536Z,0.7
2018-01-03T06:22:12.256Z,1.3
2018-01-03T06:23:13.009Z,1.8
2018-01-03T06:24:13.789Z,0.9
2018-01-03T06:25:14.510Z,2.0
2018-01-03T06:26:15.239Z,1.5
2018-01-03T06:27:15.960Z,1.6
2018-01-03T06:28:16.690Z,1.7
2018-01-03T06:29:17.469Z,2.6
2018-01-03T06:30:18.204Z,4.0
2018-01-03T06:31:18.934Z,4.7
2018-01-03T06:32:19.735Z,2.2
2018-01-03T06:33:20.461Z,9.4
2018-01-03T06:34:21.296Z,2.5
2018-01-03T06:35:22.011Z,2.9
2018-01-03T06:36:22.729Z,1.6
2018-01-03T06:37:23.461Z,2.5
2018-01-03T06:38:24.234Z,4.4
2018-01-03T06:39:25.016Z,7.6
2018-01-03T06:40:25.799Z,1.5
2018-01-03T06:41:26.531Z,1.4
2018-01-03T06:42:27.329Z,2.5
2018-01-03T06:43:28.055Z,3.2
2018-01-03T06:44:28.831Z,3.4
2018-01-03T06:45:29.639Z,1.8
2018-01-03T06:46:30.362Z,4.3
2018-01-03T06:47:31.089Z,5.9
2018-01-03T06:48:31.849Z,4.8
2018-01-03T06:49:32.641Z,3.5
2018-01-03T06:50:33.420Z,4.2
2018-01-03T06:51:34.149Z,7.5
2018-01-03T06:52:34.881Z,5.3
2018-01-03T06:53:35.665Z,2.6
2018-01-03T06:54:36.393Z,4.3
2018-01-03T06:55:37.117Z,4.4
2018-01-03T06:56:37.914Z,3.5
2018-01-03T06:57:38.691Z,3.3
2018-01-03T06:58:39.498Z,1.8
2018-01-03T06:59:40.227Z,5.1
2018-01-03T07:00:41.091Z,3.5
2018-01-03T07:01:41.879Z,6.7
2018-01-03T07:02:42.604Z,3.7
2018-01-03T07:03:43.329Z,6.0
2018-01-03T07:04:44.051Z,5.8
2018-01-03T07:05:44.763Z,4.4
2018-01-03T07:06:45.495Z,4.2
2018-01-03T07:07:46.364Z,5.2
2018-01-03T07:08:47.171Z,9.9
2018-01-03T07:09:47.967Z,8.3
2018-01-03T07:10:48.758Z,4.9
2018-01-03T07:11:49.485Z,4.0
2018-01-03T07:12:50.356Z,8.1
2018-01-03T07:13:51.169Z,7.5
2018-01-03T07:14:51.890Z,5.5
2018-01-03T07:15:52.637Z,6.7
2018-01-03T07:16:53.499Z,5.6
2018-01-03T07:17:54.293Z,6.2
2018-01-03T07:18:55.080Z,7.2
2018-01-03T07:19:55.810Z,9.0
2018-01-03T07:20:56.542Z,6.2
2018-01-03T07:21:57.325Z,5.2
2018-01-03T07:22:58.063Z,4.8
2018-01-03T07:23:58.844Z,8.5
2018-01-03T07:24:59.643Z,11.8
2018-01-03T07:26:00.393Z,6.7
2018-01-03T07:27:01.208Z,6.8
2018-01-03T07:28:01.967Z,5.1
2018-01-03T07:29:02.704Z,6.0
2018-01-03T07:30:03.431Z,9.4
2018-01-03T07:31:04.243Z,11.8
2018-01-03T07:32:05.039Z,11.0
2018-01-03T07:33:05.769Z,8.0
2018-01-03T07:34:06.489Z,9.6
2018-01-03T07:35:07.222Z,9.9
2018-01-03T07:36:07.953Z,12.0
2018-01-03T07:37:08.754Z,5.1
2018-01-03T07:38:09.554Z,8.5
2018-01-03T07:39:10.291Z,7.5
2018-01-03T07:40:11.089Z,13.7
2018-01-03T07:41:11.864Z,10.8
2018-01-03T07:42:12.619Z,6.6
2018-01-03T07:43:13.351Z,9.0
2018-01-03T07:44:14.149Z,16.4
2018-01-03T07:45:14.930Z,8.9
2018-01-03T07:46:15.669Z,9.4
2018-01-03T07:47:16.399Z,11.5
2018-01-03T07:48:17.125Z,10.5
2018-01-03T07:49:17.866Z,12.1
2018-01-03T07:50:18.700Z,9.1
2018-01-03T07:51:19.430Z,4.6
2018-01-03T07:52:20.154Z,10.8
2018-01-03T07:53:20.892Z,10.5
2018-01-03T07:54:21.609Z,12.2
2018-01-03T07:55:22.455Z,5.0
2018-01-03T07:56:23.195Z,8.2
2018-01-03T07:57:23.917Z,14.8
2018-01-03T07:58:24.659Z,10.4
2018-01-03T07:59:25.363Z,9.0
2018-01-03T08:00:26.141Z,12.3
2018-01-03T08:01:26.940Z,10.3
2018-01-03T08:02:27.674Z,13.4
2018-01-03T08:03:28.499Z,14.1
2018-01-03T08:04:29.237Z,10.6
2018-01-03T08:05:30.057Z,14.5
2018-01-03T08:06:30.798Z,14.4
2018-01-03T08:07:31.578Z,10.3
2018-01-03T08:08:32.310Z,13.6
2018-01-03T08:09:33.037Z,6.6
2018-01-03T08:10:33.842Z,10.7
2018-01-03T08:11:34.563Z,15.0
2018-01-03T08:12:35.329Z,9.8
2018-01-03T08:13:36.078Z,17.9
2018-01-03T08:14:36.849Z,14.7
2018-01-03T08:15:37.589Z,19.9
2018-01-03T08:16:38.323Z,19.6
2018-01-03T08:17:39.108Z,15.0
2018-01-03T08:18:39.835Z,22.3
2018-01-03T08:19:40.648Z,18.3
2018-01-03T08:20:41.381Z,22.1
2018-01-03T08:21:42.211Z,22.1
2018-01-03T08:22:43.079Z,18.3
2018-01-03T08:23:43.808Z,23.5
2018-01-03T08:24:44.541Z,20.3
2018-01-03T08:25:45.358Z,19.8
2018-01-03T08:26:46.081Z,16.5
2018-01-03T08:27:46.909Z,25.7
2018-01-03T08:28:47.679Z,18.7
2018-01-03T08:29:48.420Z,19.5
2018-01-03T08:30:49.163Z,14.4
2018-01-03T08:31:49.950Z,21.0
2018-01-03T08:32:50.688Z,25.6
2018-01-03T08:33:51.409Z,16.1
2018-01-03T08:34:52.136Z,13.7
2018-01-03T08:35:52.939Z,14.8
2018-01-03T08:36:53.688Z,7.6
2018-01-03T08:37:54.447Z,7.1
2018-01-03T08:38:55.235Z,9.7
2018-01-03T08:39:56.030Z,10.8
2018-01-03T08:40:56.769Z,4.1
2018-01-03T08:41:57.500Z,9.8
2018-01-03T08:42:58.251Z,5.5
2018-01-03T08:43:58.979Z,8.8
2018-01-03T08:44:59.762Z,7.5
2018-01-03T08:46:00.519Z,5.0
2018-01-03T08:47:01.270Z,7.5
2018-01-03T08:48:02.005Z,4.7
2018-01-03T08:49:02.734Z,7.5
2018-01-03T08:50:03.501Z,5.6
2018-01-03T08:51:04.300Z,5.0
2018-01-03T08:52:05.019Z,6.2
2018-01-03T08:53:05.762Z,10.1
2018-01-03T08:54:06.594Z,6.8
2018-01-03T08:55:07.372Z,9.7
2018-01-03T08:56:08.116Z,11.8
2018-01-03T08:57:08.915Z,7.1
2018-01-03T08:58:09.682Z,8.8
2018-01-03T08:59:10.413Z,8.5
2018-01-03T09:00:11.190Z,9.2
2018-01-03T09:01:11.927Z,6.7
2018-01-03T09:02:12.651Z,10.6
2018-01-03T09:03:13.392Z,7.1
2018-01-03T09:04:14.195Z,3.6
2018-01-03T09:05:15.021Z,5.5
2018-01-03T09:06:15.757Z,11.1
2018-01-03T09:07:16.498Z,4.5
2018-01-03T09:08:17.269Z,11.0
2018-01-03T09:09:17.991Z,6.2
2018-01-03T09:10:18.719Z,4.0
2018-01-03T09:11:19.440Z,3.1
2018-01-03T09:12:20.207Z,4.4
2018-01-03T09:13:20.933Z,4.4
2018-01-03T09:14:21.671Z,2.2
2018-01-03T09:15:22.392Z,5.1
2018-01-03T09:16:23.135Z,5.7
2018-01-03T09:17:23.911Z,8.6
2018-01-03T09:18:24.640Z,5.7
2018-01-03T09:19:25.371Z,11.1
2018-01-03T09:20:26.111Z,4.5
2018-01-03T09:21:26.840Z,5.5
2018-01-03T09:22:27.557Z,5.1
2018-01-03T09:23:28.305Z,7.3
2018-01-03T09:24:29.072Z,4.9
2018-01-03T09:25:29.800Z,5.2
2018-01-03T09:26:30.534Z,10.5
2018-01-03T09:27:31.272Z,4.2
2018-01-03T09:28:31.987Z,8.0
2018-01-03T09:29:32.729Z,6.7
2018-01-03T09:30:33.511Z,3.1
2018-01-03T09:31:34.314Z,6.8
2018-01-03T09:32:35.091Z,4.1
2018-01-03T09:33:35.825Z,8.3
2018-01-03T09:34:36.583Z,4.6
2018-01-03T09:35:37.399Z,4.5
2018-01-03T09:36:38.134Z,2.7
2018-01-03T09:37:38.972Z,7.9
2018-01-03T09:38:39.656Z,3.0
2018-01-03T09:39:40.389Z,7.2
2018-01-03T09:40:41.170Z,9.5
2018-01-03T09:41:41.967Z,7.0
2018-01-03T09:42:42.700Z,6.9
2018-01-03T09:43:43.431Z,4.8
2018-01-03T09:44:44.163Z,7.0
2018-01-03T09:45:44.897Z,5.0
2018-01-03T09:46:45.680Z,5.8
2018-01-03T09:47:46.399Z,6.9
2018-01-03T09:48:47.120Z,6.4
2018-01-03T09:49:47.852Z,5.6
2018-01-03T09:50:48.590Z,5.0
2018-01-03T09:51:49.440Z,7.3
2018-01-03T09:52:50.175Z,7.2
2018-01-03T09:53:50.978Z,7.3
2018-01-03T09:54:51.689Z,9.8
2018-01-03T09:55:52.420Z,7.8
2018-01-03T09:56:53.217Z,5.9
2018-01-03T09:57:54.013Z,4.5
2018-01-03T09:58:54.744Z,6.7
2018-01-03T09:59:55.535Z,4.0
2018-01-03T10:00:56.328Z,7.9
2018-01-03T10:01:57.060Z,8.8
2018-01-03T10:02:57.800Z,6.7
2018-01-03T10:03:58.531Z,11.5
2018-01-03T10:04:59.351Z,7.7
2018-01-03T10:06:00.098Z,5.1
2018-01-03T10:07:00.881Z,6.6
2018-01-03T10:08:01.669Z,2.9
2018-01-03T10:09:02.385Z,6.4
2018-01-03T10:10:03.117Z,11.2
2018-01-03T10:11:03.921Z,5.1
2018-01-03T10:12:04.659Z,7.1
2018-01-03T10:13:05.367Z,7.1
2018-01-03T10:14:06.097Z,10.5
2018-01-03T10:15:06.830Z,5.1
2018-01-03T10:16:07.636Z,8.4
2018-01-03T10:17:08.418Z,11.5
2018-01-03T10:18:09.150Z,13.6
2018-01-03T10:19:09.949Z,7.7
2018-01-03T10:20:10.678Z,9.1
2018-01-03T10:21:11.410Z,5.4
2018-01-03T10:22:12.148Z,8.6
2018-01-03T10:23:12.959Z,4.4
2018-01-03T10:24:13.692Z,9.5
2018-01-03T10:25:14.439Z,8.8
2018-01-03T10:26:15.174Z,5.2
2018-01-03T10:27:15.969Z,13.9
2018-01-03T10:28:16.746Z,14.6
2018-01-03T10:29:17.548Z,9.0
2018-01-03T10:30:18.281Z,7.9
2018-01-03T10:31:19.010Z,9.2
2018-01-03T10:32:19.757Z,11.3
2018-01-03T10:33:20.491Z,10.5
2018-01-03T10:34:21.230Z,10.2
2018-01-03T10:35:21.965Z,10.9
2018-01-03T10:36:22.748Z,15.5
2018-01-03T10:37:23.484Z,6.8
2018-01-03T10:38:24.290Z,12.6
2018-01-03T10:39:25.022Z,8.3
2018-01-03T10:40:25.850Z,8.5
2018-01-03T10:41:26.670Z,10.8
2018-01-03T10:42:27.404Z,12.6
2018-01-03T10:43:28.188Z,9.1
2018-01-03T10:44:28.967Z,7.6
2018-01-03T10:45:29.786Z,7.7
2018-01-03T10:46:30.521Z,12.2
2018-01-03T10:47:31.330Z,11.8
2018-01-03T10:48:32.056Z,10.7
2018-01-03T10:49:32.869Z,24.8
2018-01-03T10:50:33.609Z,12.4
2018-01-03T10:51:34.410Z,8.5
2018-01-03T10:52:35.119Z,12.9
2018-01-03T10:53:35.841Z,9.9
2018-01-03T10:54:36.641Z,16.1
2018-01-03T10:55:37.373Z,14.0
2018-01-03T10:56:38.144Z,8.6
2018-01-03T10:57:38.870Z,9.6
2018-01-03T10:58:39.612Z,10.9
2018-01-03T10:59:40.439Z,12.4
2018-01-03T11:00:41.219Z,13.2
2018-01-03T11:01:42.002Z,11.4
2018-01-03T11:02:42.814Z,17.0
2018-01-03T11:03:43.601Z,7.9
2018-01-03T11:04:44.400Z,12.1
2018-01-03T11:05:45.150Z,11.8
2018-01-03T11:06:45.931Z,12.3
2018-01-03T11:07:46.660Z,12.3
2018-01-03T11:08:47.401Z,15.8
2018-01-03T11:09:48.201Z,12.1
2018-01-03T11:10:48.931Z,13.7
2018-01-03T11:11:49.735Z,10.2
2018-01-03T11:12:50.510Z,16.9
2018-01-03T11:13:51.231Z,16.3
2018-01-03T11:14:52.027Z,12.7
2018-01-03T11:15:52.760Z,11.7
2018-01-03T11:16:53.488Z,12.9
2018-01-03T11:17:54.289Z,13.7
2018-01-03T11:18:55.090Z,14.1
2018-01-03T11:19:55.824Z,15.3
2018-01-03T11:20:56.593Z,19.8
2018-01-03T11:21:57.390Z,17.1
2018-01-03T11:22:58.121Z,18.2
2018-01-03T11:23:58.927Z,13.0
2018-01-03T11:24:59.779Z,12.4
2018-01-03T11:26:00.511Z,22.3
2018-01-03T11:27:01.321Z,12.4
2018-01-03T11:28:02.165Z,13.7
2018-01-03T11:29:02.861Z,13.3
2018-01-03T11:30:03.597Z,17.0
2018-01-03T11:31:04.415Z,15.4
2018-01-03T11:32:05.212Z,19.1
2018-01-03T11:33:05.939Z,18.2
2018-01-03T11:34:06.665Z,12.5
2018-01-03T11:35:07.400Z,17.6
2018-01-03T11:36:08.190Z,10.1
2018-01-03T11:37:08.920Z,15.8
2018-01-03T11:38:09.647Z,14.0
2018-01-03T11:39:10.385Z,13.7
2018-01-03T11:40:11.120Z,17.5
2018-01-03T11:41:11.901Z,17.5
2018-01-03T11:42:12.717Z,16.2
2018-01-03T11:43:13.440Z,12.4
2018-01-03T11:44:14.181Z,15.8
2018-01-03T11:45:14.914Z,16.4
2018-01-03T11:46:15.700Z,16.9
2018-01-03T11:47:16.430Z,13.5
2018-01-03T11:48:18.146Z,12.6
2018-01-03T11:49:18.813Z,17.4
2018-01-03T11:50:19.541Z,14.9
2018-01-03T11:51:20.316Z,19.0
2018-01-03T11:52:21.098Z,11.0
2018-01-03T11:53:22.439Z,14.9
2018-01-03T11:54:23.286Z,14.1
2018-01-03T11:55:24.062Z,14.3
2018-01-03T11:56:24.837Z,13.2
2018-01-03T11:57:25.735Z,13.2
2018-01-03T11:58:26.542Z,13.0
2018-01-03T11:59:27.350Z,12.9
2018-01-03T12:00:28.149Z,13.5
2018-01-03T12:01:29.036Z,9.1
2018-01-03T12:02:29.859Z,16.7
2018-01-03T12:03:30.601Z,11.6
2018-01-03T12:04:31.370Z,15.8
2018-01-03T12:05:32.109Z,8.9
2018-01-03T12:06:32.869Z,15.0
2018-01-03T12:07:33.573Z,13.7
2018-01-03T12:08:34.374Z,13.8
2018-01-03T12:09:35.109Z,12.3
2018-01-03T12:10:35.835Z,8.4
2018-01-03T12:11:36.610Z,13.2
2018-01-03T12:12:37.410Z,11.1
2018-01-03T12:13:38.249Z,13.9
2018-01-03T12:14:38.979Z,10.9
2018-01-03T12:15:39.704Z,12.0
2018-01-03T12:16:40.425Z,7.8
2018-01-03T12:17:41.150Z,9.4
2018-01-03T12:18:41.870Z,7.2
2018-01-03T12:19:42.610Z,14.1
2018-01-03T12:20:43.333Z,7.6
2018-01-03T12:21:44.060Z,11.2
2018-01-03T12:22:44.788Z,10.6
2018-01-03T12:23:45.521Z,11.6
2018-01-03T12:24:46.266Z,12.2
2018-01-03T12:25:47.062Z,11.8
2018-01-03T12:26:47.922Z,6.0
2018-01-03T12:27:48.735Z,13.7
2018-01-03T12:28:49.455Z,14.1
2018-01-03T12:29:50.185Z,12.4
2018-01-03T12:30:50.916Z,10.3
2018-01-03T12:31:51.887Z,14.8
2018-01-03T12:32:52.722Z,8.0
2018-01-03T12:33:53.487Z,7.9
2018-01-03T12:34:54.301Z,5.8
2018-01-03T12:35:55.296Z,6.6
2018-01-03T12:36:56.093Z,6.3
2018-01-03T12:37:56.890Z,7.6
2018-01-03T12:38:57.594Z,14.4
2018-01-03T12:39:58.317Z,4.8
2018-01-03T12:40:59.075Z,4.8
2018-01-03T12:42:01.358Z,8.7
2018-01-03T12:43:02.323Z,6.5
2018-01-03T12:44:03.706Z,4.6
2018-01-03T12:45:04.591Z,5.3
2018-01-03T12:46:05.398Z,8.3
2018-01-03T12:47:06.174Z,7.1
2018-01-03T12:48:06.901Z,6.5
2018-01-03T12:49:07.782Z,6.4
2018-01-03T12:50:08.499Z,2.5
2018-01-03T12:51:09.504Z,8.3
2018-01-03T12:52:10.234Z,4.9
2018-01-03T12:53:11.020Z,7.0
2018-01-03T12:54:11.754Z,8.5
2018-01-03T12:55:12.534Z,3.0
2018-01-03T12:56:13.210Z,5.1
2018-01-03T12:57:14.045Z,5.8
2018-01-03T12:58:14.769Z,4.7
2018-01-03T12:59:15.532Z,8.1
2018-01-03T13:00:16.316Z,3.2
2018-01-03T13:01:17.061Z,4.6
2018-01-03T13:02:17.779Z,8.7
2018-01-03T13:03:18.549Z,6.5
2018-01-03T13:04:19.338Z,4.8
2018-01-03T13:05:20.075Z,8.1
2018-01-03T13:06:20.800Z,3.9
2018-01-03T13:07:21.542Z,4.5
2018-01-03T13:08:22.325Z,7.4
2018-01-03T13:09:23.146Z,7.9
2018-01-03T13:10:23.950Z,8.9
2018-01-03T13:11:24.681Z,5.3
2018-01-03T13:12:25.413Z,5.0
2018-01-03T13:13:26.201Z,8.1
2018-01-03T13:14:26.932Z,4.6
2018-01-03T13:15:27.732Z,9.0
2018-01-03T13:16:28.469Z,3.6
2018-01-03T13:17:29.245Z,7.7
2018-01-03T13:18:30.096Z,14.5
2018-01-03T13:19:30.859Z,5.0
2018-01-03T13:20:32.695Z,5.0
2018-01-03T13:21:33.987Z,6.8
2018-01-03T13:22:34.760Z,7.4
2018-01-03T13:23:35.489Z,6.6
2018-01-03T13:24:36.223Z,5.3
2018-01-03T13:25:37.041Z,11.0
2018-01-03T13:26:37.760Z,6.3
2018-01-03T13:27:38.535Z,8.8
2018-01-03T13:28:39.296Z,10.5
2018-01-03T13:29:40.065Z,5.0
2018-01-03T13:30:40.841Z,7.1
2018-01-03T13:31:41.657Z,5.0
2018-01-03T13:32:42.420Z,4.3
2018-01-03T13:33:43.140Z,5.1
2018-01-03T13:34:43.932Z,8.6
2018-01-03T13:35:44.654Z,4.1
2018-01-03T13:36:45.350Z,5.5
2018-01-03T13:37:46.159Z,4.9
2018-01-03T13:38:46.888Z,6.0
2018-01-03T13:39:47.659Z,4.4
2018-01-03T13:40:48.380Z,7.4
2018-01-03T13:41:49.103Z,3.1
2018-01-03T13:42:49.863Z,3.1
2018-01-03T13:43:50.605Z,7.6
2018-01-03T13:44:51.415Z,6.0
2018-01-03T13:45:52.150Z,12.7
2018-01-03T13:46:52.877Z,5.5
2018-01-03T13:47:53.589Z,9.1
2018-01-03T13:48:54.356Z,8.0
2018-01-03T13:49:55.230Z,8.6
2018-01-03T13:50:55.965Z,9.6
2018-01-03T13:51:56.672Z,9.3
2018-01-03T13:52:57.490Z,6.9
2018-01-03T13:53:58.276Z,3.7
2018-01-03T13:54:59.091Z,1.5
2018-01-03T13:55:59.900Z,5.3
2018-01-03T13:57:00.613Z,2.9
2018-01-03T13:58:01.331Z,3.6
2018-01-03T13:59:02.109Z,2.2
2018-01-03T14:00:02.880Z,4.0
2018-01-03T14:01:03.601Z,4.8
2018-01-03T14:02:04.392Z,3.2
2018-01-03T14:03:05.189Z,5.2
2018-01-03T14:04:05.971Z,3.1
2018-01-03T14:05:06.834Z,5.8
2018-01-03T14:06:07.539Z,3.7
2018-01-03T14:07:08.271Z,6.5
2018-01-03T14:08:09.001Z,3.8
2018-01-03T14:09:09.807Z,4.9
2018-01-03T14:10:10.590Z,4.6
2018-01-03T14:11:11.379Z,7.4
2018-01-03T14:12:12.103Z,5.4
2018-01-03T14:13:12.922Z,6.1
2018-01-03T14:14:13.621Z,6.5
2018-01-03T14:15:14.477Z,3.5
2018-01-03T14:16:15.199Z,3.4
2018-01-03T14:17:15.930Z,4.0
2018-01-03T14:18:16.652Z,4.0
2018-01-03T14:19:17.367Z,4.6
2018-01-03T14:20:18.186Z,1.5
2018-01-03T14:21:18.906Z,3.4
2018-01-03T14:22:19.647Z,2.7
2018-01-03T14:23:20.409Z,1.6
2018-01-03T14:24:21.130Z,3.8
2018-01-03T14:25:21.979Z,2.0
2018-01-03T14:26:22.713Z,7.7
2018-01-03T14:27:23.496Z,6.0
2018-01-03T14:28:24.286Z,3.3
2018-01-03T14:29:25.081Z,4.1
2018-01-03T14:30:25.922Z,5.2
2018-01-03T14:31:26.600Z,4.5
2018-01-03T14:32:27.323Z,4.0
2018-01-03T14:33:28.100Z,2.2
2018-01-03T14:34:28.873Z,1.9
2018-01-03T14:35:29.660Z,3.1
2018-01-03T14:36:30.392Z,6.8
2018-01-03T14:37:31.165Z,2.6
2018-01-03T14:38:31.905Z,4.6
2018-01-03T14:39:32.634Z,5.4
2018-01-03T14:40:33.371Z,4.4
2018-01-03T14:41:34.143Z,5.6
2018-01-03T14:42:35.133Z,2.3
2018-01-03T14:43:35.801Z,4.4
2018-01-03T14:44:36.580Z,4.3
2018-01-03T14:45:37.299Z,3.0
2018-01-03T14:46:38.020Z,2.3
2018-01-03T14:47:38.739Z,5.9
2018-01-03T14:48:39.510Z,4.8
2018-01-03T14:49:40.275Z,4.5
2018-01-03T14:50:41.010Z,4.6
2018-01-03T14:51:41.730Z,4.4
2018-01-03T14:52:42.449Z,5.9
2018-01-03T14:53:43.239Z,4.4
2018-01-03T14:54:43.969Z,2.7
2018-01-03T14:55:44.687Z,8.1
2018-01-03T14:56:45.422Z,5.3
2018-01-03T14:57:46.229Z,6.5
2018-01-03T14:58:47.011Z,8.4
2018-01-03T14:59:47.741Z,6.1
2018-01-03T15:00:48.614Z,8.0
2018-01-03T15:01:49.350Z,6.2
2018-01-03T15:02:50.072Z,6.0
2018-01-03T15:03:50.849Z,7.6
2018-01-03T15:04:51.579Z,4.5
2018-01-03T15:05:52.310Z,6.6
2018-01-03T15:06:53.031Z,6.9
2018-01-03T15:07:53.751Z,5.2
2018-01-03T15:08:54.551Z,5.9
2018-01-03T15:09:55.376Z,6.3
2018-01-03T15:10:56.097Z,5.8
2018-01-03T15:11:56.829Z,5.8
2018-01-03T15:12:57.560Z,6.9
2018-01-03T15:13:58.366Z,8.5
2018-01-03T15:14:59.141Z,8.9
2018-01-03T15:15:59.934Z,8.8
2018-01-03T15:17:00.665Z,8.2
2018-01-03T15:18:01.389Z,6.1
2018-01-03T15:19:02.134Z,8.0
2018-01-03T15:20:02.842Z,8.3
2018-01-03T15:21:03.563Z,5.9
2018-01-03T15:22:04.291Z,8.8
2018-01-03T15:23:05.222Z,12.7
2018-01-03T15:24:05.879Z,9.8
2018-01-03T15:25:06.612Z,9.5
2018-01-03T15:26:07.332Z,7.3
2018-01-03T15:27:08.050Z,7.6
2018-01-03T15:28:08.829Z,10.8